Time;durP1;ratioP1;P1;durP2;ratioP2;P2;SDS_P1;SDS_P2;PMS_P1;PMS_P2;Temp;Humidity;BMP_temperature;BMP_pressure;BME280_temperature;BME280_humidity;BME280_pressure;Samples;Min_cycle;Max_cycle;Signal;HPM_P1;HPM_P2
2021/01/24 00:00:52;;;;;;;22.41;10.27;;;;;;;4.70;76.78;98390.13;364664;108;1962891;-73
2021/01/24 00:01:58;;;;;;;22.61;11.40;;;;;;;4.72;76.73;98392.61;365888;108;1963312;-72
2021/01/24 00:03:04;;;;;;;22.47;11.02;;;;;;;4.71;76.74;98391.79;326709;108;2662938;-72
2021/01/24 00:04:10;;;;;;;24.58;11.11;;;;;;;4.69;76.71;98391.16;358323;108;1963001;-71
2021/01/24 00:05:16;;;;;;;27.89;11.92;;;;;;;4.70;76.70;98391.98;369020;108;1962904;-71
2021/01/24 00:06:21;;;;;;;25.39;10.95;;;;;;;4.74;76.72;98385.22;365233;110;1961948;-72
2021/01/24 00:07:27;;;;;;;19.39;10.21;;;;;;;4.75;76.56;98392.20;370750;107;1963923;-72
2021/01/24 00:08:32;;;;;;;22.01;10.34;;;;;;;4.71;76.79;98389.11;366525;108;1961837;-72
2021/01/24 00:09:38;;;;;;;22.39;10.53;;;;;;;4.67;76.93;98384.36;366836;110;1961971;-72
2021/01/24 00:10:45;;;;;;;21.54;10.96;;;;;;;4.74;76.95;98385.22;366338;105;1962218;-72
2021/01/24 00:11:50;;;;;;;28.16;12.09;;;;;;;4.71;76.55;98378.41;366050;111;1960934;-72
2021/01/24 00:12:55;;;;;;;21.10;10.11;;;;;;;4.71;76.65;98375.74;363745;111;1961080;-73
2021/01/24 00:14:00;;;;;;;21.56;10.39;;;;;;;4.78;76.73;98378.42;357067;112;1961797;-73
2021/01/24 00:15:07;;;;;;;24.23;11.31;;;;;;;4.81;76.33;98378.84;356132;113;1960899;-73
2021/01/24 00:16:15;;;;;;;21.55;11.32;;;;;;;4.79;76.44;98377.39;361900;111;1961040;-73
2021/01/24 00:17:20;;;;;;;25.69;11.60;;;;;;;4.77;76.53;98368.77;362148;111;1960777;-73
2021/01/24 00:18:26;;;;;;;22.99;10.46;;;;;;;4.76;76.61;98375.97;355796;113;1960806;-72
2021/01/24 00:19:31;;;;;;;24.07;10.85;;;;;;;4.77;76.74;98372.25;361346;111;1960813;-72
2021/01/24 00:20:37;;;;;;;23.19;11.39;;;;;;;4.78;76.73;98371.22;361128;111;1962905;-72
2021/01/24 00:21:43;;;;;;;23.81;10.76;;;;;;;4.81;76.81;98367.31;320932;112;2639949;-72
2021/01/24 00:22:49;;;;;;;19.91;10.40;;;;;;;4.84;76.77;98370.44;339343;111;1961009;-72
2021/01/24 00:23:54;;;;;;;20.89;10.04;;;;;;;4.85;76.39;98363.23;364420;111;1960984;-72
2021/01/24 00:24:59;;;;;;;18.07;9.28;;;;;;;4.89;76.44;98356.43;359035;106;1960810;-73
2021/01/24 00:26:04;;;;;;;21.77;10.32;;;;;;;4.97;76.05;98352.75;364384;109;1962102;-72
2021/01/24 00:27:10;;;;;;;19.61;9.78;;;;;;;4.94;75.82;98367.36;362290;109;1961938;-73
2021/01/24 00:28:20;;;;;;;22.96;10.87;;;;;;;4.91;75.91;98365.09;361145;111;1961957;-73
2021/01/24 00:29:23;;;;;;;19.48;10.17;;;;;;;4.76;76.39;98373.30;308279;113;2807061;-73
2021/01/24 00:30:29;;;;;;;16.73;9.66;;;;;;;4.84;76.38;98364.23;358347;111;1963928;-73
2021/01/24 00:31:34;;;;;;;21.72;10.18;;;;;;;4.87;76.05;98361.19;356908;111;1963037;-73
2021/01/24 00:32:40;;;;;;;20.42;9.96;;;;;;;4.84;76.12;98354.38;362985;111;1961914;-72
2021/01/24 00:33:47;;;;;;;21.98;9.76;;;;;;;4.85;76.18;98347.17;354271;111;1961738;-73
2021/01/24 00:34:52;;;;;;;18.41;9.70;;;;;;;4.85;76.20;98353.34;309996;111;2810971;-73
2021/01/24 00:35:58;;;;;;;18.93;9.43;;;;;;;4.84;76.18;98350.86;322294;113;1961893;-73
2021/01/24 00:37:04;;;;;;;21.79;10.21;;;;;;;4.80;76.38;98357.66;356086;111;1962910;-73
2021/01/24 00:38:11;;;;;;;20.63;10.00;;;;;;;4.76;76.46;98356.39;356887;111;1962016;-72
2021/01/24 00:39:16;;;;;;;20.76;10.33;;;;;;;4.75;76.67;98354.75;356068;112;1962017;-73
2021/01/24 00:40:22;;;;;;;20.02;10.56;;;;;;;4.75;76.86;98355.57;327553;111;1963947;-72
2021/01/24 00:41:28;;;;;;;21.88;11.07;;;;;;;4.78;76.86;98354.34;353223;111;1961935;-73
2021/01/24 00:42:36;;;;;;;22.86;10.24;;;;;;;4.81;76.72;98351.27;342685;115;1961914;-73
2021/01/24 00:43:41;;;;;;;19.36;9.57;;;;;;;4.78;76.64;98349.00;339428;117;1961957;-72
2021/01/24 00:44:47;;;;;;;19.97;9.72;;;;;;;4.80;76.79;98338.92;319158;112;2660998;-72
2021/01/24 00:45:52;;;;;;;19.54;10.81;;;;;;;4.82;76.84;98335.02;326831;113;1963972;-72
2021/01/24 00:46:58;;;;;;;19.77;10.11;;;;;;;4.83;76.61;98330.48;351801;111;1962937;-73
2021/01/24 00:48:04;;;;;;;20.05;9.97;;;;;;;4.83;76.67;98335.84;358928;111;1961966;-72
2021/01/24 00:49:09;;;;;;;18.15;9.81;;;;;;;4.82;76.64;98336.88;356497;111;1962060;-72
2021/01/24 00:50:17;;;;;;;19.10;9.41;;;;;;;4.85;76.70;98333.80;316006;113;2894032;-71
2021/01/24 00:51:22;;;;;;;19.46;9.82;;;;;;;4.86;76.64;98330.08;325772;114;1963009;-72
2021/01/24 00:52:29;;;;;;;15.62;9.57;;;;;;;4.87;76.70;98330.91;354459;112;1962040;-71
2021/01/24 00:53:36;;;;;;;16.56;9.06;;;;;;;4.89;76.85;98334.20;362939;105;1959784;-72
2021/01/24 00:54:41;;;;;;;25.02;9.59;;;;;;;4.97;76.66;98334.02;339644;107;2403038;-71
2021/01/24 00:55:47;;;;;;;21.64;10.08;;;;;;;5.01;76.19;98335.27;347998;107;1963997;-72
2021/01/24 00:56:52;;;;;;;20.37;9.58;;;;;;;5.01;76.08;98337.95;361055;107;1961948;-71
2021/01/24 00:57:57;;;;;;;19.33;9.24;;;;;;;4.98;76.11;98339.18;370079;107;1965270;-72
2021/01/24 00:59:03;;;;;;;17.96;9.23;;;;;;;4.97;76.13;98339.37;376532;105;1961947;-71
2021/01/24 01:00:09;;;;;;;18.99;10.38;;;;;;;4.96;76.21;98333.20;375933;105;1961916;-71
2021/01/24 01:01:15;;;;;;;17.31;10.01;;;;;;;4.95;76.33;98333.39;375680;105;1963903;-71
2021/01/24 01:02:21;;;;;;;22.08;9.49;;;;;;;4.97;76.37;98334.02;324984;105;2794917;-71
2021/01/24 01:03:27;;;;;;;17.22;9.15;;;;;;;5.00;76.15;98334.45;369081;106;1961959;-71
2021/01/24 01:04:32;;;;;;;21.47;9.67;;;;;;;5.01;76.18;98329.92;374438;105;1966015;-71
2021/01/24 01:05:41;;;;;;;25.03;10.67;;;;;;;4.99;76.00;98330.11;375468;105;1961952;-72
2021/01/24 01:06:49;;;;;;;23.60;9.91;;;;;;;4.96;76.20;98325.17;367691;107;1961959;-71
2021/01/24 01:08:06;;;;;;;19.21;9.14;;;;;;;4.95;76.37;98325.36;369270;107;1961927;-72
2021/01/24 01:09:11;;;;;;;20.86;10.14;;;;;;;4.94;76.47;98319.19;318773;110;2001008;-72
2021/01/24 01:10:18;;;;;;;17.44;8.95;;;;;;;4.97;76.38;98316.11;362774;110;1962006;-71
2021/01/24 01:11:23;;;;;;;19.24;9.29;;;;;;;4.95;76.44;98320.86;356942;111;1961941;-71
2021/01/24 01:12:29;;;;;;;20.61;10.04;;;;;;;4.97;76.39;98324.13;360698;112;1962000;-71
2021/01/24 01:13:35;;;;;;;17.55;9.23;;;;;;;4.98;76.41;98323.13;331434;112;2464094;-71
2021/01/24 01:14:41;;;;;;;15.97;8.91;;;;;;;4.98;76.44;98315.09;334263;112;1962914;-71
2021/01/24 01:15:46;;;;;;;17.46;9.08;;;;;;;5.01;76.43;98320.03;340362;110;1962036;-71
2021/01/24 01:16:53;;;;;;;17.49;9.88;;;;;;;5.01;76.22;98312.01;360867;111;1963051;-71
2021/01/24 01:17:59;;;;;;;22.21;8.84;;;;;;;4.99;76.31;98318.59;361916;112;1962985;-71
2021/01/24 01:19:05;;;;;;;17.42;9.07;;;;;;;4.96;76.51;98310.97;322290;112;2606947;-70
2021/01/24 01:20:12;;;;;;;18.61;9.51;;;;;;;4.95;76.52;98314.66;360398;110;1961985;-70
2021/01/24 01:21:17;;;;;;;18.58;9.21;;;;;;;4.97;76.67;98307.25;353144;113;1961956;-72
2021/01/24 01:22:22;;;;;;;22.98;9.43;;;;;;;4.95;76.54;98315.51;364292;110;1961736;-71
2021/01/24 01:23:28;;;;;;;21.00;9.62;;;;;;;4.97;76.76;98313.43;362248;103;1960850;-71
2021/01/24 01:24:33;;;;;;;23.27;8.67;;;;;;;4.96;76.79;98309.11;354164;112;1961078;-72
2021/01/24 01:25:39;;;;;;;20.86;8.99;;;;;;;4.98;76.83;98314.28;352273;112;1960938;-71
2021/01/24 01:26:45;;;;;;;19.66;9.10;;;;;;;5.01;76.91;98314.69;294354;112;2167165;-71
2021/01/24 01:27:50;;;;;;;16.53;9.12;;;;;;;5.05;76.66;98310.59;324067;112;1960967;-71
2021/01/24 01:28:55;;;;;;;19.65;9.74;;;;;;;5.08;76.54;98325.41;344171;112;1961917;-71
2021/01/24 01:30:01;;;;;;;16.79;8.79;;;;;;;5.10;76.48;98325.19;354269;112;1964011;-70
2021/01/24 01:31:06;;;;;;;18.43;7.71;;;;;;;5.11;76.50;98313.45;351862;112;1961911;-71
2021/01/24 01:32:12;;;;;;;19.57;8.31;;;;;;;5.14;76.26;98319.23;363624;105;1961895;-71
2021/01/24 01:33:19;;;;;;;15.68;9.36;;;;;;;5.10;76.32;98314.48;371131;107;1961975;-70
2021/01/24 01:34:24;;;;;;;19.60;8.59;;;;;;;5.11;76.39;98313.45;321179;109;2055671;-70
2021/01/24 01:35:30;;;;;;;18.18;8.14;;;;;;;5.10;76.40;98309.95;350463;109;1963000;-71
2021/01/24 01:36:36;;;;;;;18.03;8.41;;;;;;;5.11;76.40;98308.95;368316;109;1963947;-71
2021/01/24 01:37:41;;;;;;;19.08;7.64;;;;;;;5.09;76.53;98308.31;364145;109;1961890;-70
2021/01/24 01:38:47;;;;;;;16.12;8.58;;;;;;;5.08;76.62;98304.00;364883;109;1963050;-70
2021/01/24 01:39:52;;;;;;;16.87;7.96;;;;;;;5.11;76.58;98308.09;367947;109;1961988;-71
2021/01/24 01:40:58;;;;;;;18.16;8.44;;;;;;;5.13;76.49;98304.19;367889;109;1963887;-71
2021/01/24 01:42:15;;;;;;;17.33;8.31;;;;;;;5.13;76.47;98306.86;332961;109;2892905;-71
2021/01/24 01:43:23;;;;;;;18.02;8.09;;;;;;;5.13;76.56;98311.40;357340;109;1962001;-70
2021/01/24 01:44:29;;;;;;;16.94;8.78;;;;;;;5.12;76.70;98309.77;349326;109;2909967;-68
2021/01/24 01:45:34;;;;;;;18.21;9.32;;;;;;;5.09;76.78;98304.82;330049;111;1961922;-71
2021/01/24 01:46:41;;;;;;;15.26;8.69;;;;;;;5.11;76.92;98313.45;363855;109;1961916;-72
2021/01/24 01:47:46;;;;;;;18.86;9.06;;;;;;;5.13;76.86;98301.52;367932;109;1964023;-71
2021/01/24 01:48:53;;;;;;;18.59;8.41;;;;;;;5.15;76.80;98307.48;359350;111;1961986;-71
2021/01/24 01:49:59;;;;;;;16.07;8.83;;;;;;;5.14;76.60;98313.06;319873;109;2653044;-70
2021/01/24 01:51:05;;;;;;;18.19;8.63;;;;;;;5.14;76.87;98308.53;367177;109;1961913;-71
2021/01/24 01:52:10;;;;;;;19.94;9.28;;;;;;;5.18;76.76;98308.94;359201;111;1961889;-71
2021/01/24 01:53:17;;;;;;;18.39;8.44;;;;;;;5.22;76.54;98300.30;360873;110;1961981;-71
2021/01/24 01:54:25;;;;;;;22.27;10.44;;;;;;;5.19;76.62;98306.06;363940;109;1961947;-70
2021/01/24 01:55:32;;;;;;;16.43;9.51;;;;;;;5.19;76.57;98305.25;364026;111;1963994;-71
2021/01/24 01:56:38;;;;;;;19.87;9.24;;;;;;;5.17;76.67;98308.12;346031;109;2278962;-70
2021/01/24 01:57:44;;;;;;;20.33;9.44;;;;;;;5.17;76.82;98300.09;347476;109;1961974;-70
2021/01/24 01:58:50;;;;;;;19.64;10.06;;;;;;;5.15;76.92;98298.64;360681;109;1962906;-70
2021/01/24 02:00:08;;;;;;;21.34;9.63;;;;;;;5.17;77.01;98294.73;368698;109;1963953;-70
2021/01/24 02:01:29;;;;;;;17.58;9.17;;;;;;;5.18;76.92;98298.23;367761;109;1963019;-70
2021/01/24 02:02:51;;;;;;;18.42;9.07;;;;;;;5.17;76.94;98296.59;362815;109;1968593;-71
2021/01/24 02:04:15;;;;;;;16.65;9.31;;;;;;;5.20;76.96;98293.50;364074;109;1962041;-71
2021/01/24 02:05:37;;;;;;;18.84;8.44;;;;;;;5.21;76.83;98293.30;362682;109;1969898;-70
2021/01/24 02:06:49;;;;;;;17.91;8.94;;;;;;;5.26;76.69;98285.45;347997;111;2934965;-71
2021/01/24 02:08:00;;;;;;;14.80;7.69;;;;;;;5.25;76.74;98285.68;362439;109;1961977;-72
2021/01/24 02:09:13;;;;;;;15.15;7.90;;;;;;;5.26;76.68;98279.28;359274;111;1962010;-71
2021/01/24 02:10:48;;;;;;;19.73;7.91;;;;;;;5.23;76.86;98287.73;358685;111;1961942;-70
2021/01/24 02:12:05;;;;;;;18.69;8.88;;;;;;;5.24;76.83;98276.83;352933;109;1961971;-71
2021/01/24 02:13:27;;;;;;;17.55;8.47;;;;;;;5.28;76.85;98271.87;359907;111;1961999;-70
2021/01/24 02:14:50;;;;;;;15.12;7.57;;;;;;;5.25;76.91;98275.79;337382;109;1961912;-70
2021/01/24 02:15:59;;;;;;;16.51;6.83;;;;;;;5.22;77.21;98270.85;365190;109;1961979;-71
2021/01/24 02:17:06;;;;;;;14.52;7.49;;;;;;;5.22;77.21;98273.53;367166;109;1961994;-72
2021/01/24 02:18:24;;;;;;;17.13;7.96;;;;;;;5.21;77.45;98276.40;337144;109;2512973;-70
2021/01/24 02:20:02;;;;;;;15.42;6.79;;;;;;;5.18;77.53;98268.78;352440;113;1961964;-73
2021/01/24 02:21:18;;;;;;;17.38;7.58;;;;;;;5.15;78.02;98270.02;331704;113;1962005;-71
2021/01/24 02:22:27;;;;;;;14.23;6.96;;;;;;;5.20;77.81;98272.08;351235;113;1961909;-71
2021/01/24 02:23:33;;;;;;;14.41;6.73;;;;;;;5.20;77.72;98254.16;314022;115;1961929;-70
2021/01/24 02:24:55;;;;;;;15.71;6.72;;;;;;;5.21;77.78;98263.02;348520;114;1961945;-71
2021/01/24 02:26:24;;;;;;;11.89;5.99;;;;;;;5.22;77.73;98264.68;347004;114;1959733;-72
2021/01/24 02:27:51;;;;;;;14.56;6.56;;;;;;;5.26;77.69;98269.39;346008;114;1961939;-71
2021/01/24 02:29:18;;;;;;;14.97;6.43;;;;;;;5.30;77.52;98261.80;307314;117;1961995;-72
2021/01/24 02:30:29;;;;;;;16.12;6.07;;;;;;;5.29;77.56;98268.16;335799;120;1961976;-71
2021/01/24 02:31:37;;;;;;;13.74;6.06;;;;;;;5.31;77.55;98259.94;346843;115;1962149;-71
2021/01/24 02:32:45;;;;;;;17.74;7.56;;;;;;;5.31;77.61;98263.42;347217;113;1962004;-71
2021/01/24 02:33:54;;;;;;;13.54;7.00;;;;;;;5.32;77.70;98272.28;325877;113;2406974;-72
2021/01/24 02:35:02;;;;;;;12.57;6.20;;;;;;;5.31;77.76;98259.94;349605;113;1961932;-71
2021/01/24 02:36:10;;;;;;;12.51;6.76;;;;;;;5.37;77.61;98267.12;350427;113;1961935;-71
2021/01/24 02:37:18;;;;;;;14.02;6.51;;;;;;;5.39;77.59;98273.11;302580;115;2818948;-71
2021/01/24 02:38:28;;;;;;;15.97;6.97;;;;;;;5.41;77.44;98269.19;351162;110;1963024;31
2021/01/24 02:39:34;;;;;;;15.28;6.28;;;;;;;5.44;77.46;98265.28;360815;110;1962018;-71
2021/01/24 02:40:41;;;;;;;13.94;6.44;;;;;;;5.43;77.51;98263.64;330871;110;2238380;-71
2021/01/24 02:41:47;;;;;;;10.17;5.99;;;;;;;5.43;77.51;98259.11;367266;108;1961988;-70
2021/01/24 02:42:56;;;;;;;12.94;6.76;;;;;;;5.46;77.42;98256.00;368762;108;1962559;-70
2021/01/24 02:44:08;;;;;;;16.13;7.02;;;;;;;5.44;77.46;98251.89;338128;110;1962059;-71
2021/01/24 02:45:13;;;;;;;14.74;5.99;;;;;;;5.40;77.63;98250.64;361093;110;1961947;-69
2021/01/24 02:46:20;;;;;;;14.16;7.35;;;;;;;5.37;77.87;98241.20;363528;110;1963955;-73
2021/01/24 02:47:28;;;;;;;12.64;6.33;;;;;;;5.38;77.86;98247.37;331555;110;1962833;-71
2021/01/24 02:48:33;;;;;;;14.42;6.87;;;;;;;5.37;77.92;98251.91;363111;110;1962986;-72
2021/01/24 02:49:44;;;;;;;14.63;6.15;;;;;;;5.42;77.83;98253.94;362634;110;1961978;-72
2021/01/24 02:50:50;;;;;;;13.73;6.11;;;;;;;5.41;77.79;98250.45;364264;110;1963958;-72
2021/01/24 02:51:58;;;;;;;14.87;6.89;;;;;;;5.44;77.73;98252.70;346377;112;1961937;-70
2021/01/24 02:53:05;;;;;;;14.78;7.24;;;;;;;5.45;77.73;98256.20;363238;112;1961956;-71
2021/01/24 02:54:11;;;;;;;12.36;6.08;;;;;;;5.40;77.79;98246.14;295441;110;2233660;-71
2021/01/24 02:55:18;;;;;;;12.52;6.04;;;;;;;5.38;77.92;98250.05;361905;110;1962076;-70
2021/01/24 02:56:25;;;;;;;10.82;5.84;;;;;;;5.36;78.17;98246.75;359072;111;1963037;-71
2021/01/24 02:57:32;;;;;;;13.41;6.66;;;;;;;5.33;78.28;98253.34;357186;110;1961990;-71
2021/01/24 02:58:39;;;;;;;16.31;7.06;;;;;;;5.37;78.24;98253.73;363280;110;1963066;-70
2021/01/24 02:59:45;;;;;;;11.95;6.13;;;;;;;5.38;78.20;98250.05;332630;110;2496918;-72
2021/01/24 03:00:52;;;;;;;12.15;6.46;;;;;;;5.40;78.17;98248.81;355467;110;1961933;-71
2021/01/24 03:01:57;;;;;;;13.16;6.27;;;;;;;5.36;78.33;98241.39;363695;109;1962103;-70
2021/01/24 03:03:04;;;;;;;12.87;5.66;;;;;;;5.38;78.38;98250.87;346519;114;1961974;-72
2021/01/24 03:04:10;;;;;;;14.91;6.33;;;;;;;5.46;78.21;98244.48;319738;111;2669973;-71
2021/01/24 03:05:15;;;;;;;15.78;6.03;;;;;;;5.46;78.09;98247.97;339137;110;1961991;-70
2021/01/24 03:06:22;;;;;;;13.32;5.86;;;;;;;5.46;78.18;98245.30;361955;110;1961925;-70
2021/01/24 03:07:29;;;;;;;12.70;6.69;;;;;;;5.44;78.21;98236.64;363085;110;1962897;-71
2021/01/24 03:08:46;;;;;;;12.71;6.73;;;;;;;5.45;78.25;98238.30;327299;110;2579935;-71
2021/01/24 03:09:51;;;;;;;14.06;7.21;;;;;;;5.44;78.12;98244.67;358967;112;1962012;-70
2021/01/24 03:10:57;;;;;;;15.63;7.34;;;;;;;5.47;78.24;98241.58;360223;110;1963008;-72
2021/01/24 03:12:06;;;;;;;17.64;7.66;;;;;;;5.49;78.15;98244.05;370485;108;1963039;-70
2021/01/24 03:13:24;;;;;;;16.87;7.63;;;;;;;5.49;78.21;98239.52;373265;107;1961925;-71
2021/01/24 03:14:32;;;;;;;15.17;7.49;;;;;;;5.51;78.18;98234.78;308193;107;2187906;-71
2021/01/24 03:15:38;;;;;;;13.96;7.16;;;;;;;5.53;78.11;98233.73;372482;107;1964981;-71
2021/01/24 03:16:47;;;;;;;16.36;7.70;;;;;;;5.58;78.07;98239.30;376051;107;1965005;-70
2021/01/24 03:17:56;;;;;;;14.44;6.66;;;;;;;5.59;77.96;98236.42;372258;107;1961966;-71
2021/01/24 03:19:03;;;;;;;16.10;6.28;;;;;;;5.52;77.99;98224.89;372764;106;1962030;-71
2021/01/24 03:20:10;;;;;;;15.06;6.70;;;;;;;5.60;78.00;98238.06;327342;107;2019198;-71
2021/01/24 03:21:18;;;;;;;12.88;6.31;;;;;;;5.58;78.03;98234.75;373747;107;1962015;-71
2021/01/24 03:22:24;;;;;;;14.18;6.88;;;;;;;5.61;78.03;98230.84;372517;107;1961740;-71
2021/01/24 03:23:30;;;;;;;12.86;6.14;;;;;;;5.62;78.12;98233.32;334493;107;1960761;-70
2021/01/24 03:24:37;;;;;;;13.87;6.46;;;;;;;5.62;78.16;98227.14;374718;107;1960939;-72
2021/01/24 03:25:43;;;;;;;13.86;6.67;;;;;;;5.65;78.06;98226.72;374392;107;1960968;-71
2021/01/24 03:26:51;;;;;;;14.19;6.66;;;;;;;5.62;78.09;98227.96;342793;107;1961993;-70
2021/01/24 03:27:57;;;;;;;14.10;5.99;;;;;;;5.62;78.32;98221.79;373416;107;1963952;-70
2021/01/24 03:29:03;;;;;;;16.24;5.87;;;;;;;5.66;78.18;98215.81;374049;107;1961961;-71
2021/01/24 03:30:12;;;;;;;17.52;6.08;;;;;;;5.65;78.32;98203.43;353307;107;1962013;-71
2021/01/24 03:31:18;;;;;;;17.69;6.16;;;;;;;5.66;78.35;98205.09;371143;107;1962016;-72
2021/01/24 03:32:24;;;;;;;16.92;5.97;;;;;;;5.62;78.43;98209.21;341927;107;2478006;-71
2021/01/24 03:33:30;;;;;;;16.80;6.45;;;;;;;5.62;78.57;98206.53;372898;107;1961938;-71
2021/01/24 03:34:35;;;;;;;18.01;5.79;;;;;;;5.64;78.61;98211.70;374106;107;1961981;-71
2021/01/24 03:35:52;;;;;;;13.42;6.66;;;;;;;5.64;78.67;98212.51;372700;107;1961980;-71
2021/01/24 03:36:58;;;;;;;18.83;6.47;;;;;;;5.65;78.74;98203.43;368652;107;1964940;-72
2021/01/24 03:38:04;;;;;;;15.71;6.29;;;;;;;5.68;78.63;98200.33;338911;107;1962025;-71
2021/01/24 03:39:09;;;;;;;17.58;6.65;;;;;;;5.70;78.57;98197.45;355999;109;1963851;-70
2021/01/24 03:40:15;;;;;;;16.11;6.85;;;;;;;5.72;78.58;98203.42;357862;113;1962000;-69
2021/01/24 03:41:21;;;;;;;13.88;6.66;;;;;;;5.76;78.40;98203.81;361840;109;1961992;-71
2021/01/24 03:42:28;;;;;;;15.73;6.53;;;;;;;5.75;78.37;98207.55;360216;109;1961927;-70
2021/01/24 03:43:33;;;;;;;15.59;6.98;;;;;;;5.75;78.46;98208.36;342305;109;2269042;-71
2021/01/24 03:44:39;;;;;;;15.81;6.43;;;;;;;5.75;78.45;98200.32;323319;112;1961893;-71
2021/01/24 03:45:44;;;;;;;20.04;6.11;;;;;;;5.76;78.51;98195.78;364562;110;1961884;-70
2021/01/24 03:46:51;;;;;;;12.04;6.96;;;;;;;5.75;78.48;98205.68;359194;110;1961935;-71
2021/01/24 03:47:57;;;;;;;15.53;5.91;;;;;;;5.73;78.60;98188.98;358448;109;1961991;-71
2021/01/24 03:49:05;;;;;;;14.81;6.87;;;;;;;5.73;78.79;98188.98;313821;113;2668026;-72
2021/01/24 03:50:14;;;;;;;17.12;7.28;;;;;;;5.76;78.63;98198.45;362944;111;1962884;-71
2021/01/24 03:51:19;;;;;;;14.87;6.51;;;;;;;5.76;78.65;98193.09;362708;109;1969004;-71
2021/01/24 03:52:25;;;;;;;17.45;7.15;;;;;;;5.72;78.92;98190.03;361053;109;1961988;-71
2021/01/24 03:53:30;;;;;;;16.58;6.92;;;;;;;5.77;78.81;98195.58;360965;109;1961989;-71
2021/01/24 03:54:35;;;;;;;15.53;7.71;;;;;;;5.79;78.69;98192.67;361941;109;1962981;-72
2021/01/24 03:55:41;;;;;;;16.91;7.68;;;;;;;5.80;78.68;98202.37;352860;114;1961928;-70
2021/01/24 03:56:47;;;;;;;17.97;7.22;;;;;;;5.80;78.63;98194.34;352486;112;1962020;-70
2021/01/24 03:57:53;;;;;;;17.37;7.07;;;;;;;5.79;78.70;98201.53;332615;109;2468025;-70
2021/01/24 03:58:59;;;;;;;22.10;7.82;;;;;;;5.84;78.50;98192.86;336200;112;1962967;-69
2021/01/24 04:00:05;;;;;;;18.34;8.77;;;;;;;5.84;78.50;98192.86;362136;109;1962020;-71
2021/01/24 04:01:14;;;;;;;13.03;8.28;;;;;;;5.81;78.57;98196.78;332979;112;2317034;-70
2021/01/24 04:02:24;;;;;;;19.04;7.11;;;;;;;5.82;78.61;98200.28;360978;109;1962022;-70
2021/01/24 04:03:29;;;;;;;16.73;6.89;;;;;;;5.82;78.65;98201.13;351394;114;1962027;-70
2021/01/24 04:04:35;;;;;;;15.99;8.24;;;;;;;5.80;78.82;98199.70;361795;109;1961929;-69
2021/01/24 04:05:40;;;;;;;19.42;7.43;;;;;;;5.83;78.72;98193.91;360983;109;1961893;-70
2021/01/24 04:06:47;;;;;;;19.53;7.88;;;;;;;5.83;78.81;98193.91;359392;109;1962003;-71
2021/01/24 04:07:53;;;;;;;16.83;7.40;;;;;;;5.80;78.85;98200.52;324842;109;2644034;-70
2021/01/24 04:08:58;;;;;;;24.01;7.18;;;;;;;5.80;78.99;98197.83;334550;111;1963970;-72
2021/01/24 04:10:06;;;;;;;19.26;6.91;;;;;;;5.82;79.07;98198.45;347234;109;1963946;-70
2021/01/24 04:11:12;;;;;;;16.87;7.13;;;;;;;5.82;79.01;98200.28;361913;109;1961964;-70
2021/01/24 04:12:17;;;;;;;17.20;7.07;;;;;;;5.84;79.04;98195.55;321986;109;2671047;-70
2021/01/24 04:13:23;;;;;;;22.44;7.87;;;;;;;5.87;78.97;98197.80;332420;109;1962050;-72
2021/01/24 04:14:29;;;;;;;21.48;7.93;;;;;;;5.86;78.90;98188.13;360605;109;1962923;-69
2021/01/24 04:15:34;;;;;;;17.70;6.32;;;;;;;5.86;78.95;98190.80;350968;112;1963716;-70
2021/01/24 04:16:41;;;;;;;17.14;6.52;;;;;;;5.84;79.13;98185.64;358998;111;1964995;-70
2021/01/24 04:17:47;;;;;;;15.50;7.28;;;;;;;5.87;79.12;98181.72;337266;109;2376999;-71
2021/01/24 04:18:53;;;;;;;18.90;7.69;;;;;;;5.87;79.12;98185.21;351052;109;1961934;-71
2021/01/24 04:19:58;;;;;;;19.08;7.31;;;;;;;5.88;79.10;98186.06;363343;109;1962979;-70
2021/01/24 04:21:04;;;;;;;18.31;6.74;;;;;;;5.86;79.21;98188.94;353878;112;1963973;-70
2021/01/24 04:22:10;;;;;;;13.94;6.83;;;;;;;5.87;79.21;98185.21;361378;109;1963957;-70
2021/01/24 04:23:15;;;;;;;16.17;7.21;;;;;;;5.90;79.24;98181.28;354892;112;1963971;-70
2021/01/24 04:24:24;;;;;;;15.19;6.87;;;;;;;5.90;79.20;98179.45;362216;109;1960968;-71
2021/01/24 04:25:29;;;;;;;20.01;6.94;;;;;;;5.87;79.21;98182.53;363050;111;1961923;-70
2021/01/24 04:26:37;;;;;;;17.42;7.04;;;;;;;5.89;79.34;98182.33;355884;111;2933964;-70
2021/01/24 04:27:42;;;;;;;14.07;7.31;;;;;;;5.91;79.35;98177.59;331982;111;1961965;-70
2021/01/24 04:28:48;;;;;;;18.73;6.59;;;;;;;5.94;79.30;98175.33;351655;110;1961872;-69
2021/01/24 04:29:54;;;;;;;16.24;6.42;;;;;;;5.99;79.10;98168.52;362731;109;1962029;-71
2021/01/24 04:31:01;;;;;;;18.06;7.03;;;;;;;5.92;79.52;98173.86;362768;109;1961951;-70
2021/01/24 04:32:09;;;;;;;15.77;7.67;;;;;;;5.93;79.48;98173.70;359157;109;1961973;-70
2021/01/24 04:33:14;;;;;;;13.51;6.94;;;;;;;5.99;79.27;98181.92;357761;113;1964011;-71
2021/01/24 04:34:19;;;;;;;13.78;6.62;;;;;;;5.97;79.20;98173.27;359230;109;1962005;-70
2021/01/24 04:35:26;;;;;;;15.15;7.45;;;;;;;5.95;79.13;98170.78;353493;112;1962016;-70
2021/01/24 04:36:32;;;;;;;16.57;7.05;;;;;;;5.96;79.47;98177.81;334596;112;2305948;-69
2021/01/24 04:37:37;;;;;;;19.16;6.07;;;;;;;5.98;79.28;98175.75;338647;109;1961980;-70
2021/01/24 04:38:42;;;;;;;13.56;7.26;;;;;;;6.01;79.22;98169.95;352249;111;1961950;-70
2021/01/24 04:39:48;;;;;;;15.22;7.18;;;;;;;6.01;79.16;98178.00;361606;109;1962022;-70
2021/01/24 04:40:54;;;;;;;17.78;7.62;;;;;;;6.02;79.19;98170.77;362222;109;1961997;-68
2021/01/24 04:42:00;;;;;;;14.42;7.71;;;;;;;6.00;79.30;98175.52;362480;109;1961952;-71
2021/01/24 04:43:06;;;;;;;17.43;7.59;;;;;;;5.98;79.41;98170.39;358549;111;1961937;-70
2021/01/24 04:44:12;;;;;;;15.76;7.28;;;;;;;6.00;79.64;98173.66;329746;111;2462958;-69
2021/01/24 04:45:19;;;;;;;16.27;9.25;;;;;;;6.03;79.50;98170.54;354291;112;1961903;-71
2021/01/24 04:46:28;;;;;;;17.47;8.05;;;;;;;6.06;79.42;98174.66;344640;109;2901052;-71
2021/01/24 04:47:46;;;;;;;18.22;9.01;;;;;;;6.05;79.27;98173.84;351716;114;1962055;-70
2021/01/24 04:48:52;;;;;;;18.37;8.02;;;;;;;6.08;79.29;98172.59;329675;110;1961880;-71
2021/01/24 04:49:58;;;;;;;20.77;7.88;;;;;;;6.06;79.33;98169.29;354807;112;1961894;-71
2021/01/24 04:51:05;;;;;;;19.45;8.22;;;;;;;6.06;79.50;98177.33;355252;112;1961956;-72
2021/01/24 04:52:11;;;;;;;18.53;8.19;;;;;;;6.04;79.53;98166.02;355274;112;1961968;-71
2021/01/24 04:53:17;;;;;;;18.45;8.24;;;;;;;6.07;79.61;98168.27;316126;112;1986919;-69
2021/01/24 04:54:23;;;;;;;19.52;8.11;;;;;;;6.08;79.66;98168.05;349537;112;1961891;-70
2021/01/24 04:55:30;;;;;;;18.13;7.77;;;;;;;6.10;79.60;98168.66;355357;112;1961943;-70
2021/01/24 04:56:38;;;;;;;21.86;7.70;;;;;;;6.10;79.56;98165.16;334104;112;2338901;-71
2021/01/24 04:57:46;;;;;;;18.35;7.21;;;;;;;6.11;79.67;98162.28;356623;112;1961952;-71
2021/01/24 04:58:55;;;;;;;14.19;6.93;;;;;;;6.10;79.73;98167.84;328266;112;1962028;-69
2021/01/24 05:00:00;;;;;;;17.19;6.96;;;;;;;6.13;79.69;98165.55;354714;112;1961946;-71
2021/01/24 05:01:08;;;;;;;17.73;6.97;;;;;;;6.21;79.43;98160.98;323206;112;2876944;-70
2021/01/24 05:02:15;;;;;;;19.15;7.14;;;;;;;6.20;79.25;98157.48;359102;112;1961962;-71
2021/01/24 05:03:21;;;;;;;15.88;7.03;;;;;;;6.20;79.30;98154.80;314813;112;2870096;-70
2021/01/24 05:04:28;;;;;;;15.07;6.66;;;;;;;6.20;79.32;98153.98;357113;112;1961948;-70
2021/01/24 05:05:33;;;;;;;16.88;6.32;;;;;;;6.19;79.44;98150.45;353588;112;1961887;-71
2021/01/24 05:06:40;;;;;;;16.49;6.39;;;;;;;6.21;79.42;98144.89;355609;112;1963966;-70
2021/01/24 05:07:56;;;;;;;13.39;6.17;;;;;;;6.20;79.55;98145.94;320147;112;2604999;-71
2021/01/24 05:09:02;;;;;;;15.97;6.38;;;;;;;6.23;79.53;98159.73;355459;112;1961968;-71
2021/01/24 05:10:09;;;;;;;17.49;6.58;;;;;;;6.23;79.53;98142.83;355820;112;1961979;-71
2021/01/24 05:11:15;;;;;;;14.01;6.52;;;;;;;6.20;79.56;98146.76;354895;112;1961880;-70